Hartford, Connecticut
Traffic Map
Current Weather Conditions
Hartford, Connecticut
Clear
Clear
68°
Feels Like: 68°
Wind Chill: 68° Ceiling: Unl
Heat Index: 68° Visibility: 10mi
Dew Point: 58° Wind: 3mph
Humidity: 70% Direction: 190° (S)
Pressure: 30.27in Gusts: 0mph
Raw Report DataKHFD 240453Z AUTO 19003KT 10SM CLR 20/14 A3027 RMK AO2 SLP249 T02000144 402890133
Traffic Incident Summary
Active as of:
Severity:
Category:
InformationThere was an issue retrieving the traffic information for this location. Please try a different location or try again shortly.
Advertisements
Track Severe Weather on mobile